Wetterdaten: Woche 11.08.14 - 17.08.14 (KW33)
Datum Zeit Temperatur Luftfeuchte Luftdruck Niederschlag Windrichtung Sonnenschein Solar Wind
11.08.2014 00:00 17,1 C 97 % 1009,6 hPa 1,0 l/m SW 0,00 h 0 W/m 14,0 km/h (3 Bft)
11.08.2014 01:00 17,3 C 97 % 1009,9 hPa 0,6 l/m SW 0,00 h 0 W/m 20,1 km/h (4 Bft)
11.08.2014 02:00 17,3 C 98 % 1009,7 hPa 2,8 l/m SW 0,00 h 0 W/m 18,5 km/h (3 Bft)
11.08.2014 03:00 17,3 C 99 % 1009,9 hPa 3,0 l/m SW 0,00 h 0 W/m 14,9 km/h (3 Bft)
11.08.2014 04:00 17,3 C 99 % 1010,0 hPa 0,8 l/m SW 0,00 h 0 W/m 13,6 km/h (3 Bft)
11.08.2014 05:00 17,2 C 99 % 1010,3 hPa 0,0 l/m SW 0,00 h 0 W/m 11,7 km/h (2 Bft)
11.08.2014 06:00 17,1 C 99 % 1010,8 hPa 0,0 l/m SW 0,00 h 15 W/m 12,4 km/h (3 Bft)
11.08.2014 07:00 17,0 C 99 % 1011,0 hPa 0,2 l/m SW 0,00 h 23 W/m 7,8 km/h (2 Bft)
11.08.2014 08:00 17,3 C 99 % 1011,3 hPa 0,0 l/m SW 0,00 h 48 W/m 4,8 km/h (1 Bft)
11.08.2014 09:00 16,4 C 98 % 1011,4 hPa 0,2 l/m N 0,00 h 53 W/m 8,3 km/h (2 Bft)
11.08.2014 10:00 15,5 C 95 % 1011,9 hPa 0,0 l/m N-NO 0,00 h 67 W/m 12,8 km/h (3 Bft)
11.08.2014 11:00 12,8 C 92 % 1012,8 hPa 3,6 l/m N 0,00 h 49 W/m 11,7 km/h (2 Bft)
11.08.2014 12:00 13,1 C 95 % 1013,0 hPa 0,0 l/m N 0,00 h 158 W/m 3,6 km/h (1 Bft)
11.08.2014 13:00 14,7 C 91 % 1013,3 hPa 0,0 l/m NO 0,00 h 219 W/m 5,5 km/h (1 Bft)
11.08.2014 14:00 15,0 C 90 % 1013,3 hPa 0,0 l/m NO 0,00 h 96 W/m 6,1 km/h (2 Bft)
11.08.2014 15:00 15,1 C 93 % 1013,5 hPa 0,0 l/m S-SW 0,00 h 84 W/m 9,0 km/h (2 Bft)
11.08.2014 16:00 15,5 C 92 % 1013,4 hPa 0,0 l/m SW 0,00 h 135 W/m 13,7 km/h (3 Bft)
11.08.2014 17:00 15,7 C 94 % 1013,7 hPa 0,0 l/m SW 0,00 h 114 W/m 16,0 km/h (3 Bft)
11.08.2014 18:00 16,3 C 94 % 1013,3 hPa 0,0 l/m SW 0,17 h 157 W/m 17,3 km/h (3 Bft)
11.08.2014 19:00 15,8 C 93 % 1013,4 hPa 0,0 l/m W-SW 0,00 h 75 W/m 16,9 km/h (3 Bft)
11.08.2014 20:00 15,0 C 91 % 1013,9 hPa 0,0 l/m W-SW 0,08 h 20 W/m 16,1 km/h (3 Bft)
11.08.2014 21:00 14,1 C 89 % 1014,3 hPa 0,0 l/m W-SW 0,00 h 0 W/m 15,7 km/h (3 Bft)
11.08.2014 22:00 13,8 C 88 % 1014,6 hPa 0,0 l/m W-SW 0,00 h 0 W/m 14,0 km/h (3 Bft)
11.08.2014 23:00 13,5 C 89 % 1015,0 hPa 0,0 l/m W-SW 0,00 h 0 W/m 12,8 km/h (3 Bft)
12.08.2014 00:00 13,5 C 88 % 1015,2 hPa 0,0 l/m W-SW 0,00 h 0 W/m 12,4 km/h (3 Bft)
12.08.2014 01:00 13,3 C 88 % 1015,3 hPa 0,0 l/m SW 0,00 h 0 W/m 10,7 km/h (2 Bft)
12.08.2014 02:00 12,9 C 90 % 1015,2 hPa 0,0 l/m SW 0,00 h 0 W/m 6,8 km/h (2 Bft)
12.08.2014 03:00 12,7 C 91 % 1015,1 hPa 0,0 l/m SW 0,00 h 0 W/m 2,4 km/h (1 Bft)
12.08.2014 04:00 12,2 C 93 % 1014,9 hPa 0,0 l/m N 0,00 h 0 W/m 1,2 km/h (1 Bft)
12.08.2014 05:00 12,3 C 94 % 1014,7 hPa 0,0 l/m SW 0,00 h 0 W/m 1,6 km/h (1 Bft)
12.08.2014 06:00 12,4 C 96 % 1014,5 hPa 0,0 l/m SW 0,00 h 7 W/m 2,7 km/h (1 Bft)
12.08.2014 07:00 12,5 C 96 % 1014,8 hPa 0,0 l/m N 0,00 h 29 W/m 2,3 km/h (1 Bft)
12.08.2014 08:00 13,7 C 93 % 1015,1 hPa 0,0 l/m SW 0,00 h 126 W/m 5,3 km/h (1 Bft)
12.08.2014 09:00 15,2 C 88 % 1014,9 hPa 0,0 l/m SW 0,25 h 255 W/m 10,1 km/h (2 Bft)
12.08.2014 10:00 16,6 C 79 % 1014,7 hPa 0,0 l/m SW 0,58 h 463 W/m 16,4 km/h (3 Bft)
12.08.2014 11:00 18,0 C 71 % 1014,6 hPa 0,0 l/m W-SW 0,75 h 679 W/m 16,6 km/h (3 Bft)
12.08.2014 12:00 18,8 C 67 % 1014,2 hPa 0,0 l/m SW 0,25 h 417 W/m 17,6 km/h (3 Bft)
12.08.2014 13:00 19,5 C 66 % 1013,5 hPa 0,0 l/m SW 0,75 h 624 W/m 16,8 km/h (3 Bft)
12.08.2014 14:00 20,1 C 65 % 1013,0 hPa 0,0 l/m SW 0,50 h 493 W/m 16,1 km/h (3 Bft)
12.08.2014 15:00 20,4 C 63 % 1012,2 hPa 0,0 l/m S-SW 0,33 h 430 W/m 10,7 km/h (2 Bft)
12.08.2014 16:00 20,5 C 63 % 1011,6 hPa 0,0 l/m S 0,33 h 384 W/m 6,4 km/h (2 Bft)
12.08.2014 17:00 20,8 C 60 % 1011,0 hPa 0,0 l/m S 0,75 h 343 W/m 10,3 km/h (2 Bft)
12.08.2014 18:00 19,6 C 65 % 1010,6 hPa 0,0 l/m S-SW 0,17 h 145 W/m 3,6 km/h (1 Bft)
12.08.2014 19:00 18,2 C 74 % 1010,5 hPa 0,0 l/m S-SW 0,00 h 32 W/m 4,7 km/h (1 Bft)
12.08.2014 20:00 17,1 C 75 % 1010,3 hPa 0,0 l/m S-SW 0,00 h 11 W/m 5,5 km/h (1 Bft)
12.08.2014 21:00 16,1 C 83 % 1010,4 hPa 0,0 l/m N 0,00 h 0 W/m 0,3 km/h (0 Bft)
12.08.2014 22:00 15,0 C 88 % 1010,4 hPa 0,0 l/m N 0,00 h 0 W/m 0,1 km/h (0 Bft)
12.08.2014 23:00 14,6 C 91 % 1010,4 hPa 0,0 l/m N 0,00 h 0 W/m 0,0 km/h (0 Bft)
13.08.2014 00:00 14,0 C 93 % 1009,8 hPa 0,0 l/m N 0,00 h 0 W/m 0,0 km/h (0 Bft)
13.08.2014 01:00 12,9 C 93 % 1009,3 hPa 0,0 l/m N 0,00 h 0 W/m 0,7 km/h (0 Bft)
13.08.2014 02:00 12,6 C 95 % 1008,6 hPa 0,0 l/m N 0,00 h 0 W/m 0,3 km/h (0 Bft)
13.08.2014 03:00 12,7 C 95 % 1008,0 hPa 0,0 l/m N 0,00 h 0 W/m 0,8 km/h (0 Bft)
13.08.2014 04:00 13,0 C 96 % 1007,2 hPa 0,0 l/m N 0,00 h 0 W/m 0,0 km/h (0 Bft)
13.08.2014 05:00 13,3 C 97 % 1006,2 hPa 0,4 l/m N 0,00 h 0 W/m 0,7 km/h (0 Bft)
13.08.2014 06:00 13,3 C 97 % 1005,3 hPa 1,2 l/m W 0,00 h 6 W/m 4,4 km/h (1 Bft)
13.08.2014 07:00 13,3 C 98 % 1004,6 hPa 0,4 l/m W-NW 0,00 h 18 W/m 2,5 km/h (1 Bft)
13.08.2014 08:00 13,3 C 97 % 1004,9 hPa 0,6 l/m W-NW 0,00 h 20 W/m 7,9 km/h (2 Bft)
13.08.2014 09:00 13,5 C 97 % 1004,1 hPa 0,8 l/m W-NW 0,00 h 30 W/m 4,9 km/h (1 Bft)
13.08.2014 10:00 13,8 C 97 % 1003,4 hPa 0,4 l/m N 0,00 h 35 W/m 1,7 km/h (1 Bft)
13.08.2014 11:00 14,1 C 97 % 1003,1 hPa 1,0 l/m N 0,00 h 56 W/m 0,5 km/h (0 Bft)
13.08.2014 12:00 14,3 C 97 % 1002,7 hPa 0,2 l/m W 0,00 h 73 W/m 2,4 km/h (1 Bft)
13.08.2014 13:00 14,9 C 96 % 1002,2 hPa 0,0 l/m W 0,00 h 82 W/m 4,0 km/h (1 Bft)
13.08.2014 14:00 15,5 C 97 % 1002,9 hPa 0,2 l/m SW 0,00 h 134 W/m 12,3 km/h (3 Bft)
13.08.2014 15:00 16,1 C 96 % 1003,3 hPa 0,4 l/m W-SW 0,00 h 149 W/m 16,9 km/h (3 Bft)
13.08.2014 16:00 15,3 C 95 % 1003,9 hPa 0,8 l/m W-SW 0,00 h 63 W/m 15,0 km/h (3 Bft)
13.08.2014 17:00 15,1 C 96 % 1004,3 hPa 0,4 l/m SW 0,08 h 113 W/m 12,1 km/h (2 Bft)
13.08.2014 18:00 16,0 C 95 % 1005,1 hPa 0,0 l/m SW 0,33 h 212 W/m 14,9 km/h (3 Bft)
13.08.2014 19:00 15,2 C 80 % 1006,1 hPa 0,2 l/m W 0,50 h 107 W/m 33,1 km/h (5 Bft)
13.08.2014 20:00 13,6 C 80 % 1007,7 hPa 0,0 l/m W-NW 0,00 h 10 W/m 36,5 km/h (5 Bft)
13.08.2014 21:00 12,7 C 84 % 1009,1 hPa 0,0 l/m W 0,00 h 0 W/m 34,1 km/h (5 Bft)
13.08.2014 22:00 12,2 C 87 % 1010,4 hPa 0,0 l/m W-SW 0,00 h 0 W/m 31,4 km/h (5 Bft)
13.08.2014 23:00 12,1 C 86 % 1011,2 hPa 0,0 l/m W 0,00 h 0 W/m 30,2 km/h (5 Bft)
14.08.2014 00:00 11,8 C 87 % 1011,7 hPa 0,0 l/m SW 0,00 h 0 W/m 17,0 km/h (3 Bft)
14.08.2014 01:00 11,5 C 88 % 1012,1 hPa 0,0 l/m SW 0,00 h 0 W/m 12,1 km/h (2 Bft)
14.08.2014 02:00 11,5 C 88 % 1012,4 hPa 0,0 l/m SW 0,00 h 0 W/m 12,0 km/h (2 Bft)
14.08.2014 03:00 11,5 C 87 % 1012,4 hPa 0,0 l/m W 0,00 h 0 W/m 9,7 km/h (2 Bft)
14.08.2014 04:00 11,1 C 91 % 1012,5 hPa 0,0 l/m SW 0,00 h 0 W/m 10,1 km/h (2 Bft)
14.08.2014 05:00 11,2 C 91 % 1012,4 hPa 0,0 l/m SW 0,00 h 0 W/m 9,0 km/h (2 Bft)
14.08.2014 06:00 11,2 C 90 % 1012,1 hPa 0,0 l/m SW 0,00 h 12 W/m 8,7 km/h (2 Bft)
14.08.2014 07:00 11,4 C 90 % 1012,4 hPa 0,0 l/m SW 0,00 h 31 W/m 6,7 km/h (2 Bft)
14.08.2014 08:00 12,2 C 88 % 1012,7 hPa 0,0 l/m SW 0,00 h 80 W/m 4,7 km/h (1 Bft)
14.08.2014 09:00 13,0 C 86 % 1012,8 hPa 0,0 l/m W-SW 0,00 h 121 W/m 11,5 km/h (2 Bft)
14.08.2014 10:00 13,2 C 87 % 1013,0 hPa 0,0 l/m SW 0,00 h 130 W/m 13,3 km/h (3 Bft)
14.08.2014 11:00 13,5 C 88 % 1013,2 hPa 0,0 l/m SW 0,00 h 152 W/m 12,6 km/h (3 Bft)
14.08.2014 12:00 14,3 C 87 % 1013,1 hPa 0,0 l/m W-SW 0,00 h 283 W/m 13,2 km/h (3 Bft)
14.08.2014 13:00 16,3 C 78 % 1012,6 hPa 0,0 l/m S-SW 0,50 h 571 W/m 15,2 km/h (3 Bft)
14.08.2014 14:00 17,2 C 73 % 1011,9 hPa 0,0 l/m SW 0,50 h 562 W/m 17,4 km/h (3 Bft)
14.08.2014 15:00 18,3 C 67 % 1011,5 hPa 0,0 l/m SW 0,67 h 578 W/m 20,0 km/h (4 Bft)
14.08.2014 16:00 16,3 C 74 % 1011,7 hPa 0,0 l/m N-NW 0,25 h 286 W/m 13,9 km/h (3 Bft)
14.08.2014 17:00 16,6 C 74 % 1011,6 hPa 0,0 l/m NO 0,00 h 130 W/m 5,1 km/h (1 Bft)
14.08.2014 18:00 16,2 C 80 % 1011,7 hPa 0,0 l/m NO 0,00 h 112 W/m 3,9 km/h (1 Bft)
14.08.2014 19:00 15,5 C 77 % 1011,8 hPa 0,0 l/m W 0,00 h 48 W/m 7,5 km/h (2 Bft)
14.08.2014 20:00 14,8 C 77 % 1012,2 hPa 0,0 l/m W-SW 0,00 h 9 W/m 10,5 km/h (2 Bft)
14.08.2014 21:00 14,4 C 77 % 1012,6 hPa 0,0 l/m W-SW 0,00 h 0 W/m 12,0 km/h (2 Bft)
14.08.2014 22:00 13,6 C 80 % 1012,8 hPa 0,0 l/m W-SW 0,00 h 0 W/m 12,8 km/h (3 Bft)
14.08.2014 23:00 12,8 C 83 % 1013,0 hPa 0,0 l/m W-SW 0,00 h 0 W/m 17,4 km/h (3 Bft)
15.08.2014 00:00 12,4 C 87 % 1013,2 hPa 0,0 l/m W-SW 0,00 h 0 W/m 17,0 km/h (3 Bft)
15.08.2014 01:00 12,5 C 86 % 1013,1 hPa 0,0 l/m W-SW 0,00 h 0 W/m 16,2 km/h (3 Bft)
15.08.2014 02:00 11,8 C 88 % 1012,9 hPa 0,0 l/m SW 0,00 h 0 W/m 11,1 km/h (2 Bft)
15.08.2014 03:00 11,5 C 91 % 1012,8 hPa 0,0 l/m SW 0,00 h 0 W/m 9,3 km/h (2 Bft)
15.08.2014 04:00 11,9 C 90 % 1012,5 hPa 0,0 l/m W-SW 0,00 h 0 W/m 12,0 km/h (2 Bft)
15.08.2014 05:00 12,1 C 90 % 1012,2 hPa 0,0 l/m W-SW 0,00 h 0 W/m 11,0 km/h (2 Bft)
15.08.2014 06:00 12,0 C 90 % 1012,3 hPa 0,0 l/m W-SW 0,00 h 11 W/m 10,8 km/h (2 Bft)
15.08.2014 07:00 12,0 C 91 % 1012,4 hPa 0,2 l/m W-SW 0,00 h 30 W/m 7,4 km/h (2 Bft)
15.08.2014 08:00 11,9 C 95 % 1012,6 hPa 0,8 l/m SW 0,00 h 52 W/m 11,2 km/h (2 Bft)
15.08.2014 09:00 11,5 C 95 % 1013,1 hPa 0,6 l/m SW 0,00 h 51 W/m 15,3 km/h (3 Bft)
15.08.2014 10:00 12,2 C 96 % 1013,4 hPa 0,0 l/m SW 0,00 h 139 W/m 14,1 km/h (3 Bft)
15.08.2014 11:00 13,7 C 88 % 1013,4 hPa 0,0 l/m W-SW 0,00 h 250 W/m 20,6 km/h (4 Bft)
15.08.2014 12:00 14,2 C 83 % 1013,0 hPa 0,0 l/m W-SW 0,08 h 313 W/m 22,6 km/h (4 Bft)
15.08.2014 13:00 15,5 C 76 % 1012,8 hPa 0,0 l/m W-SW 0,50 h 628 W/m 28,7 km/h (4 Bft)
15.08.2014 14:00 15,3 C 76 % 1013,0 hPa 0,0 l/m SW 0,25 h 280 W/m 29,0 km/h (5 Bft)
15.08.2014 15:00 14,4 C 81 % 1013,2 hPa 0,0 l/m SW 0,25 h 345 W/m 24,6 km/h (4 Bft)
15.08.2014 16:00 12,2 C 86 % 1013,8 hPa 1,2 l/m W-NW 0,00 h 68 W/m 15,7 km/h (3 Bft)
15.08.2014 17:00 12,7 C 91 % 1013,9 hPa 0,2 l/m SW 0,25 h 186 W/m 14,4 km/h (3 Bft)
15.08.2014 18:00 13,0 C 93 % 1013,9 hPa 1,2 l/m SW 0,00 h 35 W/m 7,0 km/h (2 Bft)
15.08.2014 19:00 13,0 C 93 % 1014,1 hPa 0,0 l/m W-SW 0,25 h 69 W/m 10,2 km/h (2 Bft)
15.08.2014 20:00 12,3 C 92 % 1014,5 hPa 0,0 l/m W-SW 0,00 h 12 W/m 10,2 km/h (2 Bft)
15.08.2014 21:00 11,8 C 93 % 1015,2 hPa 0,0 l/m SW 0,00 h 0 W/m 13,4 km/h (3 Bft)
15.08.2014 22:00 11,7 C 93 % 1015,5 hPa 0,0 l/m W-SW 0,00 h 0 W/m 15,6 km/h (3 Bft)
15.08.2014 23:00 11,7 C 92 % 1016,1 hPa 0,0 l/m W-SW 0,00 h 0 W/m 16,2 km/h (3 Bft)
16.08.2014 00:00 11,5 C 93 % 1016,5 hPa 0,0 l/m W-SW 0,00 h 0 W/m 13,5 km/h (3 Bft)
16.08.2014 01:00 11,5 C 94 % 1016,6 hPa 0,0 l/m SW 0,00 h 0 W/m 9,4 km/h (2 Bft)
16.08.2014 02:00 11,5 C 94 % 1016,5 hPa 0,0 l/m W-SW 0,00 h 0 W/m 11,8 km/h (2 Bft)
16.08.2014 03:00 11,4 C 94 % 1016,5 hPa 0,0 l/m W-SW 0,00 h 0 W/m 9,3 km/h (2 Bft)
16.08.2014 04:00 11,3 C 94 % 1016,7 hPa 0,4 l/m SW 0,00 h 0 W/m 9,4 km/h (2 Bft)
16.08.2014 05:00 11,0 C 95 % 1017,0 hPa 0,0 l/m SW 0,00 h 0 W/m 9,4 km/h (2 Bft)
16.08.2014 06:00 10,9 C 96 % 1017,4 hPa 0,0 l/m SW 0,00 h 5 W/m 8,8 km/h (2 Bft)
16.08.2014 07:00 10,9 C 95 % 1017,6 hPa 0,0 l/m W-SW 0,00 h 33 W/m 8,3 km/h (2 Bft)
16.08.2014 08:00 11,2 C 95 % 1018,1 hPa 0,2 l/m W 0,00 h 68 W/m 8,4 km/h (2 Bft)
16.08.2014 09:00 12,2 C 93 % 1018,5 hPa 0,0 l/m W-SW 0,08 h 165 W/m 8,7 km/h (2 Bft)
16.08.2014 10:00 13,3 C 87 % 1018,8 hPa 0,0 l/m W 0,00 h 155 W/m 12,4 km/h (3 Bft)
16.08.2014 11:00 14,7 C 82 % 1018,8 hPa 0,0 l/m W-NW 0,67 h 589 W/m 14,8 km/h (3 Bft)
16.08.2014 12:00 13,8 C 80 % 1019,0 hPa 1,2 l/m N-NW 0,08 h 168 W/m 18,6 km/h (3 Bft)
16.08.2014 13:00 14,4 C 87 % 1018,8 hPa 0,2 l/m NW 0,67 h 773 W/m 12,6 km/h (3 Bft)
16.08.2014 14:00 14,7 C 84 % 1018,9 hPa 1,0 l/m W-SW 0,08 h 256 W/m 17,8 km/h (3 Bft)
16.08.2014 15:00 14,5 C 90 % 1018,7 hPa 0,0 l/m W-SW 0,75 h 623 W/m 17,7 km/h (3 Bft)
16.08.2014 16:00 15,8 C 84 % 1018,7 hPa 0,0 l/m SW 0,25 h 249 W/m 16,2 km/h (3 Bft)
16.08.2014 17:00 15,0 C 88 % 1018,7 hPa 0,4 l/m SW 0,17 h 158 W/m 13,3 km/h (3 Bft)
16.08.2014 18:00 14,9 C 86 % 1018,8 hPa 0,0 l/m SW 0,08 h 100 W/m 14,4 km/h (3 Bft)
16.08.2014 19:00 14,3 C 85 % 1018,9 hPa 0,2 l/m SW 0,33 h 86 W/m 13,6 km/h (3 Bft)
16.08.2014 20:00 13,1 C 89 % 1019,2 hPa 0,0 l/m W-SW 0,00 h 7 W/m 11,0 km/h (2 Bft)
16.08.2014 21:00 12,8 C 88 % 1019,8 hPa 0,0 l/m W 0,00 h 0 W/m 11,0 km/h (2 Bft)
16.08.2014 22:00 12,5 C 88 % 1020,1 hPa 0,0 l/m W-SW 0,00 h 0 W/m 10,1 km/h (2 Bft)
16.08.2014 23:00 11,4 C 90 % 1020,4 hPa 0,0 l/m W-SW 0,00 h 0 W/m 6,4 km/h (2 Bft)
17.08.2014 00:00 10,3 C 95 % 1020,1 hPa 0,0 l/m W-SW 0,00 h 0 W/m 5,2 km/h (1 Bft)
17.08.2014 01:00 10,0 C 96 % 1019,9 hPa 0,0 l/m W-SW 0,00 h 0 W/m 4,5 km/h (1 Bft)
17.08.2014 02:00 9,8 C 97 % 1019,5 hPa 0,0 l/m W-SW 0,00 h 0 W/m 3,1 km/h (1 Bft)
17.08.2014 03:00 9,4 C 97 % 1019,2 hPa 0,0 l/m N 0,00 h 0 W/m 2,0 km/h (1 Bft)
17.08.2014 04:00 8,6 C 97 % 1018,8 hPa 0,0 l/m N 0,00 h 0 W/m 0,1 km/h (0 Bft)
17.08.2014 05:00 8,1 C 98 % 1018,6 hPa 0,0 l/m N 0,00 h 0 W/m 0,4 km/h (0 Bft)
17.08.2014 06:00 8,1 C 99 % 1018,4 hPa 0,0 l/m N 0,00 h 14 W/m 0,3 km/h (0 Bft)
17.08.2014 07:00 8,6 C 99 % 1018,4 hPa 0,0 l/m W-SW 0,17 h 68 W/m 1,9 km/h (1 Bft)
17.08.2014 08:00 11,0 C 98 % 1018,1 hPa 0,0 l/m W-SW 1,00 h 265 W/m 7,8 km/h (2 Bft)
17.08.2014 09:00 13,3 C 88 % 1017,8 hPa 0,0 l/m S-SW 1,00 h 436 W/m 12,8 km/h (3 Bft)
17.08.2014 10:00 15,1 C 82 % 1017,4 hPa 0,0 l/m SW 1,00 h 609 W/m 17,0 km/h (3 Bft)
17.08.2014 11:00 16,2 C 75 % 1016,9 hPa 0,0 l/m W 0,83 h 674 W/m 16,6 km/h (3 Bft)
17.08.2014 12:00 17,3 C 67 % 1016,1 hPa 0,0 l/m W 0,92 h 782 W/m 21,5 km/h (4 Bft)
17.08.2014 13:00 18,3 C 60 % 1015,3 hPa 0,0 l/m W-SW 1,00 h 805 W/m 23,0 km/h (4 Bft)
17.08.2014 14:00 18,9 C 57 % 1014,6 hPa 0,0 l/m W-SW 1,00 h 726 W/m 23,7 km/h (4 Bft)
17.08.2014 15:00 19,7 C 53 % 1013,8 hPa 0,0 l/m W-SW 1,00 h 682 W/m 23,0 km/h (4 Bft)
17.08.2014 16:00 20,1 C 53 % 1013,0 hPa 0,0 l/m W-SW 1,00 h 588 W/m 24,5 km/h (4 Bft)
17.08.2014 17:00 19,7 C 57 % 1012,5 hPa 0,0 l/m W 0,92 h 396 W/m 18,5 km/h (3 Bft)
17.08.2014 18:00 18,9 C 62 % 1012,1 hPa 0,0 l/m W-SW 0,92 h 233 W/m 15,6 km/h (3 Bft)
17.08.2014 19:00 18,0 C 67 % 1011,8 hPa 0,0 l/m W-SW 0,42 h 84 W/m 7,9 km/h (2 Bft)
17.08.2014 20:00 15,7 C 77 % 1011,8 hPa 0,0 l/m W-SW 0,08 h 12 W/m 6,3 km/h (2 Bft)
17.08.2014 21:00 15,0 C 79 % 1012,0 hPa 0,0 l/m W-SW 0,00 h 0 W/m 12,5 km/h (3 Bft)
17.08.2014 22:00 14,4 C 81 % 1012,1 hPa 0,0 l/m W-SW 0,00 h 0 W/m 10,2 km/h (2 Bft)
17.08.2014 23:00 13,5 C 83 % 1012,0 hPa 0,0 l/m W-SW 0,00 h 0 W/m 9,7 km/h (2 Bft)
Min-Datum _ 17.08.14 17.08.14 13.08.14 - - - - 11.08.14
_ Min-Zeit 05:35 15:55 13:00 - - - - 12:50
Minimum _ 7,9 C 49 % 1002,0 hPa - - - - 0,0 km/h (0 Bft)
Max-Datum _ 12.08.14 11.08.14 16.08.14 11.08.14 - 11.08.14 16.08.14 13.08.14
_ Max-Zeit 16:50 08:10 23:10 11:25 - 18:25 11:45 19:40
Maximum _ 21,4 C 100 % 1020,4 hPa 3,6 l/m - 0,08 h 1067 W/m 51,5 km/h
W (7 Bft)
Durchschnitt _ 14,1 C 87 % 1013,0 hPa #27,0 l/m W-SW #23:45 h 212 W/m 11,5 km/h (2 Bft)